createdAt,value
2018-02-22T00:00:07.324Z,0.70
2018-02-22T00:02:37.602Z,0.70
2018-02-22T00:05:06.667Z,0.70
2018-02-22T00:07:35.756Z,0.70
2018-02-22T00:10:05.626Z,0.70
2018-02-22T00:12:34.693Z,0.70
2018-02-22T00:15:03.752Z,0.70
2018-02-22T00:17:32.841Z,0.80
2018-02-22T00:20:01.898Z,0.80
2018-02-22T00:22:30.965Z,0.70
2018-02-22T00:25:00.146Z,0.70
2018-02-22T00:27:29.203Z,0.70
2018-02-22T00:29:58.254Z,0.70
2018-02-22T00:32:27.360Z,0.70
2018-02-22T00:34:56.423Z,0.80
2018-02-22T00:37:25.483Z,0.80
2018-02-22T00:39:54.906Z,0.70
2018-02-22T00:42:23.982Z,0.70
2018-02-22T00:44:53.820Z,0.70
2018-02-22T00:47:23.669Z,0.70
2018-02-22T00:49:52.709Z,0.60
2018-02-22T00:52:22.545Z,0.60
2018-02-22T00:54:51.888Z,0.60
2018-02-22T00:57:20.954Z,0.60
2018-02-22T00:59:50.003Z,0.60
2018-02-22T01:02:19.982Z,0.50
2018-02-22T01:04:49.323Z,0.50
2018-02-22T01:07:19.165Z,0.50
2018-02-22T01:09:48.250Z,0.50
2018-02-22T01:12:17.309Z,0.50
2018-02-22T01:14:46.365Z,0.50
2018-02-22T01:17:15.564Z,0.50
2018-02-22T01:19:44.652Z,0.60
2018-02-22T01:22:13.704Z,0.60
2018-02-22T01:24:43.573Z,0.60
2018-02-22T01:27:12.618Z,0.60
2018-02-22T01:29:42.441Z,0.60
2018-02-22T01:32:11.544Z,0.60
2018-02-22T01:34:40.596Z,0.60
2018-02-22T01:37:09.648Z,0.60
2018-02-22T01:39:38.770Z,0.60
2018-02-22T01:42:07.822Z,0.60
2018-02-22T01:44:36.996Z,0.60
2018-02-22T01:47:06.856Z,0.50
2018-02-22T01:49:36.686Z,0.50
2018-02-22T01:52:05.768Z,0.50
2018-02-22T01:54:34.965Z,0.50
2018-02-22T01:57:04.018Z,0.60
2018-02-22T01:59:33.084Z,0.50
2018-02-22T02:02:02.173Z,0.50
2018-02-22T02:04:31.233Z,0.50
2018-02-22T02:07:00.606Z,0.50
2018-02-22T02:09:29.789Z,0.50
2018-02-22T02:11:59.608Z,0.50
2018-02-22T02:14:28.677Z,0.40
2018-02-22T02:16:57.742Z,0.40
2018-02-22T02:19:26.797Z,0.40
2018-02-22T02:21:55.893Z,0.40
2018-02-22T02:24:24.953Z,0.40
2018-02-22T02:26:54.265Z,0.40
2018-02-22T02:29:23.466Z,0.40
2018-02-22T02:31:53.313Z,0.40
2018-02-22T02:34:22.374Z,0.40
2018-02-22T02:36:52.269Z,0.40
2018-02-22T02:39:21.311Z,0.40
2018-02-22T02:41:50.501Z,0.50
2018-02-22T02:44:19.661Z,0.40
2018-02-22T02:46:48.725Z,0.40
2018-02-22T02:49:18.596Z,0.40
2018-02-22T02:51:48.417Z,0.40
2018-02-22T02:54:17.477Z,0.40
2018-02-22T02:56:46.565Z,0.40
2018-02-22T02:59:15.633Z,0.40
2018-02-22T03:01:44.828Z,0.40
2018-02-22T03:04:13.877Z,0.30
2018-02-22T03:06:43.704Z,0.30
2018-02-22T03:09:13.468Z,0.30
2018-02-22T03:11:42.522Z,0.30
2018-02-22T03:14:11.578Z,0.30
2018-02-22T03:16:41.436Z,0.40
2018-02-22T03:19:10.497Z,0.30
2018-02-22T03:21:40.321Z,0.30
2018-02-22T03:24:10.176Z,0.30
2018-02-22T03:26:39.231Z,0.30
2018-02-22T03:29:11.174Z,0.40
2018-02-22T03:31:41.038Z,0.30
2018-02-22T03:34:10.090Z,0.30
2018-02-22T03:36:39.149Z,0.30
2018-02-22T03:39:08.262Z,0.40
2018-02-22T03:41:37.317Z,0.40
2018-02-22T03:44:06.389Z,0.30
2018-02-22T03:46:35.571Z,0.40
2018-02-22T03:49:04.727Z,0.40
2018-02-22T03:51:33.777Z,0.40
2018-02-22T03:54:02.885Z,0.30
2018-02-22T03:56:31.944Z,0.30
2018-02-22T03:59:00.998Z,0.30
2018-02-22T04:01:30.106Z,0.30
2018-02-22T04:03:59.164Z,0.30
2018-02-22T04:06:28.206Z,0.20
2018-02-22T04:08:58.069Z,0.30
2018-02-22T04:11:27.333Z,0.30
2018-02-22T04:13:57.133Z,0.30
2018-02-22T04:16:27.088Z,0.30
2018-02-22T04:18:56.137Z,0.20
2018-02-22T04:21:25.957Z,0.30
2018-02-22T04:23:55.811Z,0.20
2018-02-22T04:26:24.868Z,0.20
2018-02-22T04:28:54.685Z,0.20
2018-02-22T04:31:24.675Z,0.20
2018-02-22T04:33:53.740Z,0.30
2018-02-22T04:36:22.793Z,0.30
2018-02-22T04:38:52.662Z,0.20
2018-02-22T04:41:21.788Z,0.20
2018-02-22T04:43:50.824Z,0.20
2018-02-22T04:46:20.014Z,0.20
2018-02-22T04:48:49.093Z,0.30
2018-02-22T04:51:18.901Z,0.20
2018-02-22T04:53:48.778Z,0.20
2018-02-22T04:56:17.836Z,0.10
2018-02-22T04:58:46.880Z,0.10
2018-02-22T05:01:15.994Z,0.10
2018-02-22T05:03:45.804Z,0.10
2018-02-22T05:06:15.638Z,0.00
2018-02-22T05:08:45.111Z,0.00
2018-02-22T05:11:14.161Z,0.00
2018-02-22T05:13:43.395Z,0.00
2018-02-22T05:16:12.469Z,0.00
2018-02-22T05:18:41.530Z,0.00
2018-02-22T05:21:10.631Z,-0.10
2018-02-22T05:23:39.742Z,-0.10
2018-02-22T05:26:08.822Z,-0.10
2018-02-22T05:28:38.004Z,-0.10
2018-02-22T05:31:07.080Z,-0.10
2018-02-22T05:33:36.903Z,-0.20
2018-02-22T05:36:06.004Z,-0.20
2018-02-22T05:38:35.081Z,-0.20
2018-02-22T05:41:04.906Z,-0.30
2018-02-22T05:43:34.129Z,-0.30
2018-02-22T05:46:03.180Z,-0.30
2018-02-22T05:48:33.023Z,-0.30
2018-02-22T05:51:02.202Z,-0.40
2018-02-22T05:53:31.278Z,-0.30
2018-02-22T05:56:07.893Z,-0.30
2018-02-22T05:58:37.122Z,-0.30
2018-02-22T06:01:06.792Z,-0.40
2018-02-22T06:03:35.852Z,-0.40
2018-02-22T06:06:05.727Z,-0.30
2018-02-22T06:08:34.838Z,-0.30
2018-02-22T06:11:03.910Z,-0.20
2018-02-22T06:13:32.968Z,-0.30
2018-02-22T06:16:02.869Z,-0.30
2018-02-22T06:18:33.560Z,-0.20
2018-02-22T06:21:02.677Z,-0.20
2018-02-22T06:23:31.728Z,-0.20
2018-02-22T06:26:00.853Z,-0.20
2018-02-22T06:28:29.929Z,-0.20
2018-02-22T06:30:59.114Z,-0.20
2018-02-22T06:33:28.170Z,-0.20
2018-02-22T06:35:58.011Z,-0.20
2018-02-22T06:38:27.118Z,-0.20
2018-02-22T06:40:56.179Z,-0.20
2018-02-22T06:43:26.020Z,-0.20
2018-02-22T06:45:55.199Z,-0.20
2018-02-22T06:48:25.034Z,-0.10
2018-02-22T06:50:54.105Z,-0.20
2018-02-22T06:53:23.977Z,-0.10
2018-02-22T06:55:53.133Z,-0.20
2018-02-22T06:58:22.236Z,-0.10
2018-02-22T07:00:51.343Z,-0.10
2018-02-22T07:03:20.422Z,0.00
2018-02-22T07:05:49.460Z,0.00
2018-02-22T07:08:18.582Z,0.00
2018-02-22T07:10:48.412Z,0.10
2018-02-22T07:13:17.474Z,0.10
2018-02-22T07:15:46.539Z,0.20
2018-02-22T07:18:15.788Z,0.20
2018-02-22T07:20:45.007Z,0.30
2018-02-22T07:23:16.791Z,0.30
2018-02-22T07:25:43.896Z,0.50
2018-02-22T07:28:13.079Z,0.50
2018-02-22T07:30:43.378Z,0.70
2018-02-22T07:33:12.442Z,0.60
2018-02-22T07:35:41.489Z,0.70
2018-02-22T07:38:11.322Z,0.90
2018-02-22T07:40:40.478Z,0.80
2018-02-22T07:43:09.615Z,0.90
2018-02-22T07:45:38.641Z,1.00
2018-02-22T07:48:07.909Z,1.00
2018-02-22T07:50:36.958Z,1.10
2018-02-22T07:53:06.027Z,1.10
2018-02-22T07:55:35.218Z,1.10
2018-02-22T07:58:04.301Z,1.30
2018-02-22T08:00:33.350Z,1.30
2018-02-22T08:03:02.465Z,1.40
2018-02-22T08:05:31.521Z,1.50
2018-02-22T08:08:01.678Z,1.60
2018-02-22T08:10:31.577Z,1.80
2018-02-22T08:13:00.631Z,1.80
2018-02-22T08:15:30.649Z,1.90
2018-02-22T08:18:00.458Z,1.90
2018-02-22T08:20:29.537Z,2.00
2018-02-22T08:22:58.586Z,2.10
2018-02-22T08:25:27.681Z,2.20
2018-02-22T08:27:56.730Z,2.30
2018-02-22T08:30:25.854Z,2.40
2018-02-22T08:32:54.949Z,2.40
2018-02-22T08:35:24.062Z,2.30
2018-02-22T08:37:53.193Z,2.30
2018-02-22T08:40:22.268Z,2.40
2018-02-22T08:42:54.245Z,2.20
2018-02-22T08:45:23.351Z,2.20
2018-02-22T08:47:52.412Z,2.30
2018-02-22T08:50:21.490Z,2.30
2018-02-22T08:52:50.580Z,2.40
2018-02-22T08:55:19.722Z,2.60
2018-02-22T08:57:48.782Z,2.60
2018-02-22T09:00:17.874Z,2.60
2018-02-22T09:02:46.965Z,2.70
2018-02-22T09:05:16.083Z,2.70
2018-02-22T09:07:45.915Z,2.80
2018-02-22T09:10:14.992Z,2.80
2018-02-22T09:12:44.862Z,2.90
2018-02-22T09:15:13.922Z,2.90
2018-02-22T09:17:43.081Z,3.00
2018-02-22T09:20:12.916Z,2.90
2018-02-22T09:22:42.014Z,2.90
2018-02-22T09:25:11.097Z,3.00
2018-02-22T09:27:41.845Z,3.40
2018-02-22T09:30:10.939Z,3.50
2018-02-22T09:32:40.543Z,3.60
2018-02-22T09:35:10.188Z,3.70
2018-02-22T09:37:39.312Z,3.90
2018-02-22T09:40:08.400Z,3.90
2018-02-22T09:42:37.494Z,4.10
2018-02-22T09:45:06.684Z,4.40
2018-02-22T09:47:35.794Z,4.70
2018-02-22T09:50:04.878Z,5.10
2018-02-22T09:52:34.012Z,5.10
2018-02-22T09:55:03.834Z,5.50
2018-02-22T09:57:32.939Z,5.50
2018-02-22T10:00:02.010Z,5.70
2018-02-22T10:02:31.139Z,5.70
2018-02-22T10:05:00.231Z,5.70
2018-02-22T10:07:29.313Z,6.00
2018-02-22T10:09:59.181Z,6.60
2018-02-22T10:12:28.245Z,6.60
2018-02-22T10:14:57.320Z,6.90
2018-02-22T10:17:26.403Z,7.20
2018-02-22T10:19:56.265Z,7.40
2018-02-22T10:22:25.339Z,7.30
2018-02-22T10:24:54.423Z,7.10
2018-02-22T10:27:23.495Z,6.90
2018-02-22T10:29:53.351Z,6.70
2018-02-22T10:32:22.404Z,6.70
2018-02-22T10:34:51.457Z,6.70
2018-02-22T10:37:20.541Z,6.60
2018-02-22T10:39:49.646Z,6.60
2018-02-22T10:42:18.709Z,6.60
2018-02-22T10:44:47.845Z,6.80
2018-02-22T10:47:16.914Z,6.80
2018-02-22T10:49:46.008Z,6.90
2018-02-22T10:52:15.092Z,6.90
2018-02-22T10:54:44.220Z,6.90
2018-02-22T10:57:13.287Z,7.00
2018-02-22T10:59:42.346Z,7.10
2018-02-22T11:02:17.723Z,7.80
2018-02-22T11:04:46.773Z,7.90
2018-02-22T11:07:16.638Z,8.10
2018-02-22T11:09:45.725Z,8.10
2018-02-22T11:12:14.797Z,8.30
2018-02-22T11:14:43.872Z,8.50
2018-02-22T11:17:13.732Z,8.30
2018-02-22T11:19:42.849Z,8.30
2018-02-22T11:22:11.864Z,8.20
2018-02-22T11:24:40.959Z,8.20
2018-02-22T11:27:10.008Z,8.00
2018-02-22T11:29:39.090Z,8.20
2018-02-22T11:32:08.144Z,7.90
2018-02-22T11:34:37.280Z,7.60
2018-02-22T11:37:06.371Z,7.70
2018-02-22T11:39:35.451Z,7.70
2018-02-22T11:42:05.271Z,7.70
2018-02-22T11:44:34.361Z,7.70
2018-02-22T11:47:03.414Z,7.70
2018-02-22T11:49:32.483Z,7.80
2018-02-22T11:52:01.694Z,8.00
2018-02-22T11:54:30.793Z,8.10
2018-02-22T11:56:59.847Z,8.30
2018-02-22T11:59:28.921Z,8.10
2018-02-22T12:01:58.774Z,7.70
2018-02-22T12:04:28.172Z,7.70
2018-02-22T12:06:57.220Z,7.70
2018-02-22T12:09:27.077Z,7.50
2018-02-22T12:11:56.221Z,7.50
2018-02-22T12:14:25.339Z,7.30
2018-02-22T12:16:55.173Z,7.30
2018-02-22T12:19:24.279Z,7.20
2018-02-22T12:21:54.079Z,6.70
2018-02-22T12:24:23.152Z,6.70
2018-02-22T12:26:52.973Z,6.50
2018-02-22T12:29:22.066Z,6.40
2018-02-22T12:31:51.891Z,6.40
2018-02-22T12:34:20.956Z,6.40
2018-02-22T12:36:50.038Z,6.30
2018-02-22T12:39:19.093Z,6.40
2018-02-22T12:41:48.195Z,6.30
2018-02-22T12:44:17.243Z,6.00
2018-02-22T12:46:47.088Z,6.30
2018-02-22T12:49:16.161Z,6.30
2018-02-22T12:51:45.207Z,6.20
2018-02-22T12:54:14.310Z,6.50
2018-02-22T12:56:44.178Z,6.40
2018-02-22T12:59:13.252Z,6.30
2018-02-22T13:01:42.373Z,6.40
2018-02-22T13:04:11.453Z,6.00
2018-02-22T13:06:40.540Z,5.50
2018-02-22T13:09:10.360Z,5.30
2018-02-22T13:11:39.512Z,5.30
2018-02-22T13:14:08.569Z,5.50
2018-02-22T13:16:37.653Z,5.60
2018-02-22T13:19:09.937Z,5.80
2018-02-22T13:21:39.038Z,5.70
2018-02-22T13:24:08.135Z,5.30
2018-02-22T13:26:37.179Z,5.20
2018-02-22T13:29:07.025Z,5.20
2018-02-22T13:31:36.087Z,5.20
2018-02-22T13:34:31.983Z,5.00
2018-02-22T13:37:01.052Z,5.00
2018-02-22T13:39:30.118Z,4.90
2018-02-22T13:41:59.249Z,4.70
2018-02-22T13:44:45.717Z,4.70
2018-02-22T13:47:14.805Z,4.60
2018-02-22T13:50:01.760Z,4.80
2018-02-22T13:52:30.872Z,4.80
2018-02-22T13:54:59.938Z,5.00
2018-02-22T13:57:28.996Z,5.00
2018-02-22T13:59:58.806Z,4.90
2018-02-22T14:02:28.674Z,4.90
2018-02-22T14:04:57.743Z,4.90
2018-02-22T14:07:26.828Z,4.70
2018-02-22T14:09:55.900Z,4.80
2018-02-22T14:12:25.720Z,4.80
2018-02-22T14:14:55.564Z,4.70
2018-02-22T14:17:24.612Z,4.70
2018-02-22T14:19:53.702Z,4.60
2018-02-22T14:22:22.773Z,4.50
2018-02-22T14:24:51.853Z,4.60
2018-02-22T14:27:20.894Z,4.60
2018-02-22T14:29:50.732Z,4.60
2018-02-22T14:32:19.792Z,4.60
2018-02-22T14:34:48.882Z,4.50
2018-02-22T14:37:17.951Z,4.50
2018-02-22T14:39:47.048Z,4.40
2018-02-22T14:42:16.106Z,4.40
2018-02-22T14:44:45.198Z,4.30
2018-02-22T14:47:14.256Z,4.30
2018-02-22T14:49:43.340Z,4.30
2018-02-22T14:52:12.427Z,4.20
2018-02-22T14:54:41.502Z,4.20
2018-02-22T14:57:10.618Z,4.20
2018-02-22T14:59:39.688Z,4.10
2018-02-22T15:02:08.750Z,4.00
2018-02-22T15:04:38.591Z,3.50
2018-02-22T15:07:07.647Z,3.50
2018-02-22T15:09:37.481Z,3.30
2018-02-22T15:12:06.573Z,3.30
2018-02-22T15:14:35.622Z,3.20
2018-02-22T15:17:04.713Z,3.20
2018-02-22T15:19:33.776Z,3.10
2018-02-22T15:22:02.869Z,3.20
2018-02-22T15:24:31.920Z,3.20
2018-02-22T15:27:01.762Z,2.90
2018-02-22T15:29:30.852Z,2.90
2018-02-22T15:32:00.669Z,2.70
2018-02-22T15:34:29.745Z,2.70
2018-02-22T15:36:59.697Z,2.70
2018-02-22T15:39:28.769Z,2.70
2018-02-22T15:41:57.828Z,2.80
2018-02-22T15:44:26.925Z,2.70
2018-02-22T15:46:56.007Z,2.70
2018-02-22T15:49:25.113Z,2.60
2018-02-22T15:51:54.171Z,2.60
2018-02-22T15:54:23.257Z,2.50
2018-02-22T15:56:52.314Z,2.50
2018-02-22T15:59:22.274Z,2.40
2018-02-22T16:01:51.324Z,2.40
2018-02-22T16:04:21.152Z,2.30
2018-02-22T16:06:50.233Z,2.30
2018-02-22T16:09:20.253Z,2.20
2018-02-22T16:11:50.073Z,2.20
2018-02-22T16:14:19.173Z,2.20
2018-02-22T16:16:48.224Z,2.10
2018-02-22T16:19:17.323Z,2.10
2018-02-22T16:21:46.485Z,2.10
2018-02-22T16:24:15.537Z,2.00
2018-02-22T16:26:45.398Z,2.00
2018-02-22T16:29:14.618Z,2.00
2018-02-22T16:31:43.733Z,1.90
2018-02-22T16:34:13.611Z,1.90
2018-02-22T16:36:43.406Z,1.90
2018-02-22T16:39:12.454Z,1.90
2018-02-22T16:41:41.541Z,1.90
2018-02-22T16:44:10.590Z,1.90
2018-02-22T16:46:41.085Z,1.70
2018-02-22T16:49:10.956Z,1.80
2018-02-22T16:51:40.005Z,1.80
2018-02-22T16:54:09.829Z,1.60
2018-02-22T16:56:38.994Z,1.60
2018-02-22T16:59:08.816Z,1.60
2018-02-22T17:01:38.664Z,1.60
2018-02-22T17:04:09.804Z,1.60
2018-02-22T17:06:38.873Z,1.50
2018-02-22T17:09:09.050Z,1.60
2018-02-22T17:11:38.342Z,1.50
2018-02-22T17:14:07.417Z,1.40
2018-02-22T17:16:36.464Z,1.40
2018-02-22T17:19:06.306Z,1.30
2018-02-22T17:21:35.369Z,1.30
2018-02-22T17:24:04.428Z,1.30
2018-02-22T17:26:39.085Z,1.20
2018-02-22T17:29:13.667Z,1.20
2018-02-22T17:31:48.240Z,1.20
2018-02-22T17:34:18.144Z,1.30
2018-02-22T17:36:52.238Z,1.30
2018-02-22T17:52:43.114Z,1.40
2018-02-22T17:55:12.178Z,1.30
2018-02-22T17:57:41.278Z,1.40
2018-02-22T18:00:10.367Z,1.40
2018-02-22T18:02:39.426Z,1.40
2018-02-22T18:05:08.500Z,1.40
2018-02-22T18:07:37.620Z,1.40
2018-02-22T18:10:07.408Z,1.40
2018-02-22T18:12:36.530Z,1.40
2018-02-22T18:15:05.555Z,1.40
2018-02-22T18:17:34.630Z,1.20
2018-02-22T18:20:03.730Z,1.20
2018-02-22T18:22:32.859Z,1.20
2018-02-22T18:25:01.899Z,1.20
2018-02-22T18:27:30.954Z,1.20
2018-02-22T18:30:01.317Z,1.10
2018-02-22T18:32:30.378Z,1.10
2018-02-22T18:34:59.468Z,1.10
2018-02-22T18:37:34.118Z,1.00
2018-02-22T18:40:08.734Z,1.00
2018-02-22T18:42:43.405Z,1.00
2018-02-22T18:45:13.272Z,1.10
2018-02-22T18:47:42.385Z,1.10
2018-02-22T18:50:11.448Z,1.10
2018-02-22T18:52:40.588Z,1.10
2018-02-22T18:55:10.440Z,1.00
2018-02-22T18:57:39.505Z,1.00
2018-02-22T19:00:09.590Z,0.90
2018-02-22T19:02:39.551Z,0.90
2018-02-22T19:05:08.763Z,0.90
2018-02-22T19:07:37.868Z,0.90
2018-02-22T19:10:07.312Z,0.80
2018-02-22T19:12:37.286Z,0.80
2018-02-22T19:15:08.457Z,0.80
2018-02-22T19:17:37.964Z,0.80
2018-02-22T19:20:07.845Z,0.80
2018-02-22T19:22:36.918Z,0.80
2018-02-22T19:25:06.026Z,0.80
2018-02-22T19:27:37.456Z,0.80
2018-02-22T19:30:07.390Z,0.70
2018-02-22T19:32:36.483Z,0.70
2018-02-22T19:35:05.522Z,0.80
2018-02-22T19:37:34.632Z,0.70
2018-02-22T19:40:03.673Z,0.70
2018-02-22T19:42:32.768Z,0.70
2018-02-22T19:45:01.829Z,0.60
2018-02-22T19:47:31.688Z,0.60
2018-02-22T19:50:01.062Z,0.60
2018-02-22T19:52:30.124Z,0.60
2018-02-22T19:54:59.203Z,0.60
2018-02-22T19:57:28.287Z,0.50
2018-02-22T19:59:57.414Z,0.50
2018-02-22T20:02:27.519Z,0.50
2018-02-22T20:04:58.206Z,0.50
2018-02-22T20:07:27.392Z,0.50
2018-02-22T20:09:56.442Z,0.60
2018-02-22T20:12:25.547Z,0.60
2018-02-22T20:14:55.380Z,0.60
2018-02-22T20:17:25.278Z,0.50
2018-02-22T20:19:55.127Z,0.50
2018-02-22T20:22:24.240Z,0.50
2018-02-22T20:24:53.312Z,0.40
2018-02-22T20:27:22.483Z,0.50
2018-02-22T20:29:52.301Z,0.40
2018-02-22T20:32:22.135Z,0.40
2018-02-22T20:34:51.328Z,0.40
2018-02-22T20:37:20.402Z,0.40
2018-02-22T20:39:50.229Z,0.40
2018-02-22T20:42:19.358Z,0.40
2018-02-22T20:44:48.433Z,0.40
2018-02-22T20:47:17.490Z,0.40
2018-02-22T20:49:47.346Z,0.30
2018-02-22T20:52:21.344Z,0.30
2018-02-22T20:55:08.110Z,0.40
2018-02-22T20:57:37.177Z,0.40
2018-02-22T21:00:06.232Z,0.40
2018-02-22T21:02:35.308Z,0.40
2018-02-22T21:05:05.203Z,0.40
2018-02-22T21:07:34.384Z,0.40
2018-02-22T21:10:03.449Z,0.40
2018-02-22T21:12:32.501Z,0.40
2018-02-22T21:15:01.618Z,0.40
2018-02-22T21:17:30.673Z,0.40
2018-02-22T21:19:59.767Z,0.50
2018-02-22T21:22:28.854Z,0.50
2018-02-22T21:24:57.908Z,0.50
2018-02-22T21:27:26.964Z,0.50
2018-02-22T21:29:56.045Z,0.50
2018-02-22T21:32:25.114Z,0.50
2018-02-22T21:34:54.210Z,0.50
2018-02-22T21:37:23.303Z,0.50
2018-02-22T21:39:52.360Z,0.50
2018-02-22T21:42:22.192Z,0.50
2018-02-22T21:44:51.247Z,0.50
2018-02-22T21:47:20.331Z,0.50
2018-02-22T21:49:49.415Z,0.50
2018-02-22T21:52:18.504Z,0.50
2018-02-22T21:54:47.587Z,0.50
2018-02-22T21:57:16.648Z,0.50
2018-02-22T21:59:45.732Z,0.50
2018-02-22T22:02:15.585Z,0.50
2018-02-22T22:04:44.637Z,0.50
2018-02-22T22:07:13.870Z,0.50
2018-02-22T22:09:42.905Z,0.50
2018-02-22T22:12:11.959Z,0.50
2018-02-22T22:14:41.838Z,0.40
2018-02-22T22:17:11.657Z,0.50
2018-02-22T22:19:41.498Z,0.40
2018-02-22T22:22:10.597Z,0.40
2018-02-22T22:24:39.667Z,0.40
2018-02-22T22:27:09.473Z,0.40
2018-02-22T22:29:39.354Z,0.40
2018-02-22T22:32:08.413Z,0.40
2018-02-22T22:34:37.477Z,0.30
2018-02-22T22:37:06.575Z,0.30
2018-02-22T22:39:36.413Z,0.30
2018-02-22T22:42:05.470Z,0.30
2018-02-22T22:44:35.352Z,0.30
2018-02-22T22:47:04.429Z,0.20
2018-02-22T22:49:33.550Z,0.20
2018-02-22T22:52:02.625Z,0.20
2018-02-22T22:54:31.681Z,0.20
2018-02-22T22:57:00.767Z,0.20
2018-02-22T22:59:29.845Z,0.30
2018-02-22T23:01:59.782Z,0.20
2018-02-22T23:04:28.833Z,0.20
2018-02-22T23:06:57.888Z,0.20
2018-02-22T23:09:26.964Z,0.20
2018-02-22T23:11:56.012Z,0.20
2018-02-22T23:14:25.099Z,0.20
2018-02-22T23:16:54.163Z,0.20
2018-02-22T23:19:23.240Z,0.20
2018-02-22T23:21:52.295Z,0.20
2018-02-22T23:24:21.390Z,0.20
2018-02-22T23:26:50.435Z,0.20
2018-02-22T23:29:19.523Z,0.20
2018-02-22T23:31:48.592Z,0.30
2018-02-22T23:34:18.438Z,0.20
2018-02-22T23:36:47.494Z,0.20
2018-02-22T23:39:17.350Z,0.20
2018-02-22T23:41:52.001Z,0.20
2018-02-22T23:44:21.080Z,0.20
2018-02-22T23:46:50.248Z,0.20
2018-02-22T23:49:19.305Z,0.10
2018-02-22T23:51:48.399Z,0.10
2018-02-22T23:54:17.452Z,0.10
2018-02-22T23:56:46.541Z,0.10
2018-02-22T23:59:15.622Z,0.10
